Terminal Aerodrome Forecast
Issued by NWS

Home | Current Version | Previous Version | Text Only | Print | Product List | Glossary On
Versions: 1 2 3 4 5 6 7 8 9 10 11 12 13 14 15 16 17 18 19 20 21
000
FTUS46 KSGX 251131
TAFSNA
TAF
KSNA 251131Z 2512/2612 VRB06KT P6SM OVC030
     FM251900 22012KT P6SM BKN035
     FM260300 18006KT P6SM OVC025=

USA.gov is the U.S. government's official web portal to all federal, state and local government web resources and services.